PWSweather.com
Personal Weather Stations
Station Observations
WEATHERMOR
MorskoSI

MorskoSI

Lat: 46.075894, Lon: 13.634103

Elevation: 149

Station Type: WS2350

http://vp-morskovreme.com

Latest ConditionsUpdated 8:10:00 AM GMT+01:01 Wednesday, Feb 21, 2018
Currently Today's Max Today's Min Today's Average
Temperature 40.5°F4.7°C 40.6°F4.8°C 39.9°F4.4°C 40.3°F4.6°C
Dew Point 27.2°F-2.7°C 29.4°F-1.4°C 26.7°F-2.9°C 27.8°F-2.3°C
Winds 11.3 mph NNE18.2 kmh NNE 11.7 mph NNE18.8 kmh NNE - 7.8 mph 12.6 kmh
Wind Gusts 20.4 mph32.8 kmh 24.2 mph38.9 kmh - -
Humidity 59% 64% 59% 61%
Pressure 29.83 in1010.2 mb 29.84 in1010.5 mb 29.81 in1009.5 mb -
Hour Temp Dew Point Humidity Winds Wind Gusts Pressure Precip Precip Rate Daily Precip Total
08:10 AM 40.5°F4.7°C 27.2°F-2.7°C 59% 11.3 mph NNE18.2 kmh NNE 20.4 mph32.8 kmh 29.83 in1010.2 mb 0.00 in0.0 mm 0.00 in0.0 mm 0.00 in0.0 mm
08:00 AM 40.3°F4.6°C 27.1°F-2.7°C 59% 10.9 mph NNE17.5 kmh NNE 23.5 mph37.8 kmh 29.84 in1010.5 mb 0.00 in0.0 mm 0.00 in0.0 mm 0.00 in0.0 mm
07:50 AM 39.9°F4.4°C 26.7°F-2.9°C 59% 10.2 mph NNE16.4 kmh NNE 21.9 mph35.2 kmh 29.84 in1010.5 mb 0.00 in0.0 mm 0.00 in0.0 mm 0.00 in0.0 mm
07:40 AM 39.9°F4.4°C 27.1°F-2.7°C 60% 8.5 mph NNE13.7 kmh NNE 20.4 mph32.8 kmh 29.83 in1010.2 mb 0.00 in0.0 mm 0.00 in0.0 mm 0.00 in0.0 mm
07:30 AM 39.9°F4.4°C 27.1°F-2.7°C 60% 10.0 mph NNE16.1 kmh NNE 20.8 mph33.5 kmh 29.84 in1010.5 mb 0.00 in0.0 mm 0.00 in0.0 mm 0.00 in0.0 mm
07:20 AM 39.9°F4.4°C 26.7°F-2.9°C 59% 9.3 mph NNE15.0 kmh NNE 22.4 mph36.0 kmh 29.84 in1010.5 mb 0.00 in0.0 mm 0.00 in0.0 mm 0.00 in0.0 mm
07:10 AM 39.9°F4.4°C 26.7°F-2.9°C 59% 6.7 mph NNE10.8 kmh NNE 20.4 mph32.8 kmh 29.84 in1010.5 mb 0.00 in0.0 mm 0.00 in0.0 mm 0.00 in0.0 mm
07:00 AM 39.9°F4.4°C 26.7°F-2.9°C 59% 9.6 mph NNE15.4 kmh NNE 19.5 mph31.4 kmh 29.84 in1010.5 mb 0.00 in0.0 mm 0.00 in0.0 mm 0.00 in0.0 mm
06:50 AM 39.9°F4.4°C 26.7°F-2.9°C 59% 7.9 mph NNE12.7 kmh NNE 22.8 mph36.7 kmh 29.84 in1010.5 mb 0.00 in0.0 mm 0.00 in0.0 mm 0.00 in0.0 mm
06:40 AM 40.1°F4.5°C 26.9°F-2.8°C 59% 10.8 mph NNE17.4 kmh NNE 19.5 mph31.4 kmh 29.83 in1010.2 mb 0.00 in0.0 mm 0.00 in0.0 mm 0.00 in0.0 mm
06:30 AM 40.1°F4.5°C 26.9°F-2.8°C 59% 7.8 mph NNE12.6 kmh NNE 18.3 mph29.5 kmh 29.83 in1010.2 mb 0.00 in0.0 mm 0.00 in0.0 mm 0.00 in0.0 mm
06:20 AM 40.1°F4.5°C 26.9°F-2.8°C 59% 10.6 mph NNE17.1 kmh NNE 21.7 mph34.9 kmh 29.83 in1010.2 mb 0.00 in0.0 mm 0.00 in0.0 mm 0.00 in0.0 mm
06:10 AM 40.1°F4.5°C 26.9°F-2.8°C 59% 11.7 mph NNE18.8 kmh NNE 24.2 mph38.9 kmh 29.83 in1010.2 mb 0.00 in0.0 mm 0.00 in0.0 mm 0.00 in0.0 mm
06:00 AM 40.3°F4.6°C 27.1°F-2.7°C 59% 8.1 mph NNE13.0 kmh NNE 18.3 mph29.5 kmh 29.83 in1010.2 mb 0.00 in0.0 mm 0.00 in0.0 mm 0.00 in0.0 mm
05:50 AM 40.3°F4.6°C 27.1°F-2.7°C 59% 8.5 mph NNE13.7 kmh NNE 17.4 mph28.0 kmh 29.83 in1010.2 mb 0.00 in0.0 mm 0.00 in0.0 mm 0.00 in0.0 mm
05:40 AM 40.3°F4.6°C 27.1°F-2.7°C 59% 6.5 mph NE10.5 kmh NE 16.6 mph26.7 kmh 29.83 in1010.2 mb 0.00 in0.0 mm 0.00 in0.0 mm 0.00 in0.0 mm
05:30 AM 40.3°F4.6°C 27.1°F-2.7°C 59% 9.3 mph NNE15.0 kmh NNE 19.9 mph32.0 kmh 29.82 in1009.8 mb 0.00 in0.0 mm 0.00 in0.0 mm 0.00 in0.0 mm
05:20 AM 40.3°F4.6°C 27.1°F-2.7°C 59% 8.3 mph NE13.4 kmh NE 18.1 mph29.1 kmh 29.82 in1009.8 mb 0.00 in0.0 mm 0.00 in0.0 mm 0.00 in0.0 mm
05:10 AM 40.6°F4.8°C 27.4°F-2.6°C 59% 8.0 mph NE12.9 kmh NE 14.8 mph23.8 kmh 29.81 in1009.5 mb 0.00 in0.0 mm 0.00 in0.0 mm 0.00 in0.0 mm
05:00 AM 40.6°F4.8°C 27.4°F-2.6°C 59% 9.6 mph NNE15.4 kmh NNE 19.9 mph32.0 kmh 29.81 in1009.5 mb 0.00 in0.0 mm 0.00 in0.0 mm 0.00 in0.0 mm
04:50 AM 40.6°F4.8°C 27.4°F-2.6°C 59% 9.9 mph NNE15.9 kmh NNE 20.4 mph32.8 kmh 29.81 in1009.5 mb 0.00 in0.0 mm 0.00 in0.0 mm 0.00 in0.0 mm
04:40 AM 40.6°F4.8°C 27.4°F-2.6°C 59% 10.2 mph NNE16.4 kmh NNE 18.6 mph29.9 kmh 29.82 in1009.8 mb 0.00 in0.0 mm 0.00 in0.0 mm 0.00 in0.0 mm
04:30 AM 40.5°F4.7°C 27.2°F-2.7°C 59% 10.1 mph NNE16.3 kmh NNE 19.2 mph30.9 kmh 29.81 in1009.5 mb 0.00 in0.0 mm 0.00 in0.0 mm 0.00 in0.0 mm
04:20 AM 40.3°F4.6°C 27.5°F-2.5°C 60% 10.0 mph NNE16.1 kmh NNE 21.9 mph35.2 kmh 29.82 in1009.8 mb 0.00 in0.0 mm 0.00 in0.0 mm 0.00 in0.0 mm
04:10 AM 40.3°F4.6°C 27.5°F-2.5°C 60% 9.9 mph NE15.9 kmh NE 20.6 mph33.2 kmh 29.82 in1009.8 mb 0.00 in0.0 mm 0.00 in0.0 mm 0.00 in0.0 mm
04:00 AM 40.3°F4.6°C 27.5°F-2.5°C 60% 10.4 mph NNE16.7 kmh NNE 18.3 mph29.5 kmh 29.81 in1009.5 mb 0.00 in0.0 mm 0.00 in0.0 mm 0.00 in0.0 mm
03:50 AM 40.1°F4.5°C 27.7°F-2.4°C 61% 10.4 mph NNE16.7 kmh NNE 20.1 mph32.3 kmh 29.81 in1009.5 mb 0.00 in0.0 mm 0.00 in0.0 mm 0.00 in0.0 mm
03:40 AM 40.1°F4.5°C 27.7°F-2.4°C 61% 8.1 mph NE13.0 kmh NE 19.0 mph30.6 kmh 29.82 in1009.8 mb 0.00 in0.0 mm 0.00 in0.0 mm 0.00 in0.0 mm
03:30 AM 39.9°F4.4°C 27.9°F-2.3°C 62% 8.6 mph NNE13.8 kmh NNE 19.0 mph30.6 kmh 29.83 in1010.2 mb 0.00 in0.0 mm 0.00 in0.0 mm 0.00 in0.0 mm
03:20 AM 39.9°F4.4°C 27.9°F-2.3°C 62% 7.5 mph NNE12.1 kmh NNE 18.3 mph29.5 kmh 29.83 in1010.2 mb 0.00 in0.0 mm 0.00 in0.0 mm 0.00 in0.0 mm
03:10 AM 39.9°F4.4°C 27.9°F-2.3°C 62% 8.5 mph NNE13.7 kmh NNE 23.3 mph37.5 kmh 29.83 in1010.2 mb 0.00 in0.0 mm 0.00 in0.0 mm 0.00 in0.0 mm
03:00 AM 39.9°F4.4°C 28.3°F-2.1°C 63% 6.8 mph NNE10.9 kmh NNE 18.6 mph29.9 kmh 29.83 in1010.2 mb 0.00 in0.0 mm 0.00 in0.0 mm 0.00 in0.0 mm
02:50 AM 39.9°F4.4°C 28.3°F-2.1°C 63% 7.6 mph NNE12.2 kmh NNE 18.3 mph29.5 kmh 29.84 in1010.5 mb 0.00 in0.0 mm 0.00 in0.0 mm 0.00 in0.0 mm
02:40 AM 40.1°F4.5°C 28.5°F-1.9°C 63% 4.6 mph NE7.4 kmh NE 23.0 mph37.0 kmh 29.84 in1010.5 mb 0.00 in0.0 mm 0.00 in0.0 mm 0.00 in0.0 mm
02:30 AM 40.3°F4.6°C 28.7°F-1.8°C 63% 3.0 mph NE4.8 kmh NE 10.3 mph16.6 kmh 29.84 in1010.5 mb 0.00 in0.0 mm 0.00 in0.0 mm 0.00 in0.0 mm
02:20 AM 40.3°F4.6°C 28.7°F-1.8°C 63% 3.0 mph NE4.8 kmh NE 10.3 mph16.6 kmh 29.84 in1010.5 mb 0.00 in0.0 mm 0.00 in0.0 mm 0.00 in0.0 mm
02:10 AM 40.3°F4.6°C 28.7°F-1.8°C 63% 5.7 mph NE9.2 kmh NE 12.3 mph19.8 kmh 29.84 in1010.5 mb 0.00 in0.0 mm 0.00 in0.0 mm 0.00 in0.0 mm
02:00 AM 40.3°F4.6°C 28.7°F-1.8°C 63% 6.1 mph NE9.8 kmh NE 18.3 mph29.5 kmh 29.84 in1010.5 mb 0.00 in0.0 mm 0.00 in0.0 mm 0.00 in0.0 mm
01:50 AM 40.3°F4.6°C 28.7°F-1.8°C 63% 7.1 mph NE11.4 kmh NE 15.2 mph24.5 kmh 29.84 in1010.5 mb 0.00 in0.0 mm 0.00 in0.0 mm 0.00 in0.0 mm
01:40 AM 40.5°F4.7°C 28.8°F-1.8°C 63% 5.8 mph NE9.3 kmh NE 14.5 mph23.3 kmh 29.84 in1010.5 mb 0.00 in0.0 mm 0.00 in0.0 mm 0.00 in0.0 mm
01:30 AM 40.6°F4.8°C 29.0°F-1.7°C 63% 6.7 mph NE10.8 kmh NE 16.6 mph26.7 kmh 29.84 in1010.5 mb 0.00 in0.0 mm 0.00 in0.0 mm 0.00 in0.0 mm
01:20 AM 40.5°F4.7°C 28.8°F-1.8°C 63% 7.8 mph NNE12.6 kmh NNE 18.6 mph29.9 kmh 29.84 in1010.5 mb 0.00 in0.0 mm 0.00 in0.0 mm 0.00 in0.0 mm
01:10 AM 40.3°F4.6°C 28.7°F-1.8°C 63% 4.9 mph NE7.9 kmh NE 15.4 mph24.8 kmh 29.84 in1010.5 mb 0.00 in0.0 mm 0.00 in0.0 mm 0.00 in0.0 mm
01:00 AM 40.3°F4.6°C 28.7°F-1.8°C 63% 5.8 mph NE9.3 kmh NE 13.2 mph21.2 kmh 29.83 in1010.2 mb 0.00 in0.0 mm 0.00 in0.0 mm 0.00 in0.0 mm
12:50 AM 40.5°F4.7°C 28.8°F-1.8°C 63% 5.2 mph NNE8.4 kmh NNE 17.2 mph27.7 kmh 29.83 in1010.2 mb 0.00 in0.0 mm 0.00 in0.0 mm 0.00 in0.0 mm
12:40 AM 40.6°F4.8°C 29.0°F-1.7°C 63% 4.8 mph NNE7.7 kmh NNE 13.4 mph21.6 kmh 29.83 in1010.2 mb 0.00 in0.0 mm 0.00 in0.0 mm 0.00 in0.0 mm
12:30 AM 40.6°F4.8°C 29.4°F-1.4°C 64% 4.3 mph NE6.9 kmh NE 12.5 mph20.1 kmh 29.83 in1010.2 mb 0.00 in0.0 mm 0.00 in0.0 mm 0.00 in0.0 mm
12:20 AM 40.6°F4.8°C 29.4°F-1.4°C 64% 4.2 mph NE6.8 kmh NE 11.4 mph18.3 kmh 29.83 in1010.2 mb 0.00 in0.0 mm 0.00 in0.0 mm 0.00 in0.0 mm
12:10 AM 40.6°F4.8°C 29.4°F-1.4°C 64% 4.9 mph NNE7.9 kmh NNE 15.9 mph25.6 kmh 29.83 in1010.2 mb 0.00 in0.0 mm 0.00 in0.0 mm 0.00 in0.0 mm
12:00 AM 40.6°F4.8°C 29.4°F-1.4°C 64% 4.8 mph NE7.7 kmh NE 14.5 mph23.3 kmh 29.83 in1010.2 mb 0.00 in0.0 mm 0.00 in0.0 mm 0.00 in0.0 mm